sensor_id;sensor_type;location;lat;lon;timestamp;temperature;humidity
51968;DHT22;75327;42.568;23.176;2024-02-04T00:12:59;3.40;99.90
51968;DHT22;75327;42.568;23.176;2024-02-04T00:28:01;3.50;99.90
51968;DHT22;75327;42.568;23.176;2024-02-04T00:43:04;3.50;99.90
51968;DHT22;75327;42.568;23.176;2024-02-04T00:58:08;3.50;99.90
51968;DHT22;75327;42.568;23.176;2024-02-04T01:13:10;3.40;99.90
51968;DHT22;75327;42.568;23.176;2024-02-04T01:28:12;3.30;99.90
51968;DHT22;75327;42.568;23.176;2024-02-04T01:43:14;3.10;99.90
51968;DHT22;75327;42.568;23.176;2024-02-04T01:58:17;3.00;99.90
51968;DHT22;75327;42.568;23.176;2024-02-04T02:13:27;3.10;99.90
51968;DHT22;75327;42.568;23.176;2024-02-04T02:28:30;3.40;99.90
51968;DHT22;75327;42.568;23.176;2024-02-04T02:43:33;3.40;99.90
51968;DHT22;75327;42.568;23.176;2024-02-04T02:58:36;3.40;99.90
51968;DHT22;75327;42.568;23.176;2024-02-04T03:13:39;3.40;99.90
51968;DHT22;75327;42.568;23.176;2024-02-04T03:28:41;3.30;99.90
51968;DHT22;75327;42.568;23.176;2024-02-04T03:43:44;3.30;99.90
51968;DHT22;75327;42.568;23.176;2024-02-04T03:58:46;3.40;99.90
51968;DHT22;75327;42.568;23.176;2024-02-04T04:13:50;3.50;99.90
51968;DHT22;75327;42.568;23.176;2024-02-04T04:28:52;3.40;99.90
51968;DHT22;75327;42.568;23.176;2024-02-04T04:43:55;3.40;99.90
51968;DHT22;75327;42.568;23.176;2024-02-04T04:58:57;3.50;99.90
51968;DHT22;75327;42.568;23.176;2024-02-04T05:13:59;3.80;99.90
51968;DHT22;75327;42.568;23.176;2024-02-04T05:29:30;3.70;99.90
51968;DHT22;75327;42.568;23.176;2024-02-04T05:44:33;3.70;99.90
51968;DHT22;75327;42.568;23.176;2024-02-04T05:59:35;4.00;99.90
51968;DHT22;75327;42.568;23.176;2024-02-04T06:14:38;3.80;99.90
51968;DHT22;75327;42.568;23.176;2024-02-04T06:29:42;4.10;99.90
51968;DHT22;75327;42.568;23.176;2024-02-04T06:44:45;4.00;99.90
51968;DHT22;75327;42.568;23.176;2024-02-04T06:59:47;4.10;99.90
51968;DHT22;75327;42.568;23.176;2024-02-04T07:14:49;4.20;99.90
51968;DHT22;75327;42.568;23.176;2024-02-04T07:29:51;4.40;99.90
51968;DHT22;75327;42.568;23.176;2024-02-04T07:44:53;4.30;99.90
51968;DHT22;75327;42.568;23.176;2024-02-04T07:59:55;4.50;99.90
51968;DHT22;75327;42.568;23.176;2024-02-04T08:14:59;4.50;99.90
51968;DHT22;75327;42.568;23.176;2024-02-04T08:30:01;4.50;99.90
51968;DHT22;75327;42.568;23.176;2024-02-04T08:45:05;4.70;99.90
51968;DHT22;75327;42.568;23.176;2024-02-04T09:00:08;4.90;99.90
51968;DHT22;75327;42.568;23.176;2024-02-04T09:15:10;5.00;99.90
51968;DHT22;75327;42.568;23.176;2024-02-04T09:30:12;5.00;99.90
51968;DHT22;75327;42.568;23.176;2024-02-04T09:45:15;5.00;99.90
51968;DHT22;75327;42.568;23.176;2024-02-04T10:00:19;5.10;99.90
51968;DHT22;75327;42.568;23.176;2024-02-04T10:15:24;5.10;99.90
51968;DHT22;75327;42.568;23.176;2024-02-04T10:30:31;5.20;99.90
51968;DHT22;75327;42.568;23.176;2024-02-04T10:45:36;5.20;99.90
51968;DHT22;75327;42.568;23.176;2024-02-04T11:00:41;5.30;99.90
51968;DHT22;75327;42.568;23.176;2024-02-04T11:15:44;5.70;99.90
51968;DHT22;75327;42.568;23.176;2024-02-04T11:30:48;5.90;99.90
51968;DHT22;75327;42.568;23.176;2024-02-04T11:45:53;6.10;99.90
51968;DHT22;75327;42.568;23.176;2024-02-04T12:00:57;6.30;99.90
51968;DHT22;75327;42.568;23.176;2024-02-04T12:16:00;6.50;99.90
51968;DHT22;75327;42.568;23.176;2024-02-04T12:31:02;6.60;99.90
51968;DHT22;75327;42.568;23.176;2024-02-04T12:46:05;6.60;99.90
51968;DHT22;75327;42.568;23.176;2024-02-04T13:01:09;6.40;99.90
51968;DHT22;75327;42.568;23.176;2024-02-04T13:16:12;6.50;99.90
51968;DHT22;75327;42.568;23.176;2024-02-04T13:31:15;6.50;99.90
51968;DHT22;75327;42.568;23.176;2024-02-04T13:46:17;6.30;99.90
51968;DHT22;75327;42.568;23.176;2024-02-04T14:01:20;6.30;99.90
51968;DHT22;75327;42.568;23.176;2024-02-04T14:16:24;6.40;99.90
51968;DHT22;75327;42.568;23.176;2024-02-04T14:31:27;6.60;99.90
51968;DHT22;75327;42.568;23.176;2024-02-04T14:46:29;6.40;99.90
51968;DHT22;75327;42.568;23.176;2024-02-04T15:01:32;6.40;99.90
51968;DHT22;75327;42.568;23.176;2024-02-04T15:16:35;6.30;99.90
51968;DHT22;75327;42.568;23.176;2024-02-04T15:31:41;6.30;99.90
51968;DHT22;75327;42.568;23.176;2024-02-04T15:46:44;6.20;99.90
51968;DHT22;75327;42.568;23.176;2024-02-04T16:01:47;6.00;99.90
51968;DHT22;75327;42.568;23.176;2024-02-04T16:16:54;5.80;99.90
51968;DHT22;75327;42.568;23.176;2024-02-04T16:32:03;5.50;99.90
51968;DHT22;75327;42.568;23.176;2024-02-04T16:47:06;5.10;99.90
51968;DHT22;75327;42.568;23.176;2024-02-04T17:02:08;5.10;99.90
51968;DHT22;75327;42.568;23.176;2024-02-04T17:17:12;5.00;99.90
51968;DHT22;75327;42.568;23.176;2024-02-04T17:32:16;5.30;99.90
51968;DHT22;75327;42.568;23.176;2024-02-04T17:47:27;5.30;99.90
51968;DHT22;75327;42.568;23.176;2024-02-04T18:02:33;5.00;99.90
51968;DHT22;75327;42.568;23.176;2024-02-04T18:17:48;5.00;99.90
51968;DHT22;75327;42.568;23.176;2024-02-04T18:32:54;5.10;99.90
51968;DHT22;75327;42.568;23.176;2024-02-04T18:47:57;5.20;99.90
51968;DHT22;75327;42.568;23.176;2024-02-04T19:03:00;5.20;99.90
51968;DHT22;75327;42.568;23.176;2024-02-04T19:18:03;5.20;99.90
51968;DHT22;75327;42.568;23.176;2024-02-04T19:33:06;5.10;99.90
51968;DHT22;75327;42.568;23.176;2024-02-04T19:48:08;4.90;99.90
51968;DHT22;75327;42.568;23.176;2024-02-04T20:03:12;5.10;99.90
51968;DHT22;75327;42.568;23.176;2024-02-04T20:18:16;4.50;99.90
51968;DHT22;75327;42.568;23.176;2024-02-04T20:33:18;4.30;99.90
51968;DHT22;75327;42.568;23.176;2024-02-04T20:48:20;4.60;99.90
51968;DHT22;75327;42.568;23.176;2024-02-04T21:03:22;4.50;99.90
51968;DHT22;75327;42.568;23.176;2024-02-04T21:18:24;4.40;99.90
51968;DHT22;75327;42.568;23.176;2024-02-04T21:33:27;3.90;99.90
51968;DHT22;75327;42.568;23.176;2024-02-04T21:48:29;3.80;99.90
51968;DHT22;75327;42.568;23.176;2024-02-04T22:03:31;4.00;99.90
51968;DHT22;75327;42.568;23.176;2024-02-04T22:18:33;4.20;99.90
51968;DHT22;75327;42.568;23.176;2024-02-04T22:33:35;3.70;99.90
51968;DHT22;75327;42.568;23.176;2024-02-04T22:48:38;3.40;99.90
51968;DHT22;75327;42.568;23.176;2024-02-04T23:03:40;3.40;99.90
51968;DHT22;75327;42.568;23.176;2024-02-04T23:18:42;3.30;99.90
51968;DHT22;75327;42.568;23.176;2024-02-04T23:33:44;3.20;99.90
51968;DHT22;75327;42.568;23.176;2024-02-04T23:48:47;3.20;99.90
